sensor_id;sensor_type;location;lat;lon;timestamp;pressure;altitude;pressure_sealevel;temperature;humidity
48244;BME280;34053;51.088;6.572;2023-03-04T00:01:08;101993.09;;;3.95;70.36
48244;BME280;34053;51.088;6.572;2023-03-04T00:03:39;101991.38;;;3.96;69.81
48244;BME280;34053;51.088;6.572;2023-03-04T00:06:09;101995.72;;;3.97;70.09
48244;BME280;34053;51.088;6.572;2023-03-04T00:08:40;102000.97;;;4.00;69.42
48244;BME280;34053;51.088;6.572;2023-03-04T00:11:10;101997.50;;;3.99;69.84
48244;BME280;34053;51.088;6.572;2023-03-04T00:13:41;102005.22;;;3.96;69.85
48244;BME280;34053;51.088;6.572;2023-03-04T00:16:11;101998.22;;;3.92;70.27
48244;BME280;34053;51.088;6.572;2023-03-04T00:18:41;101993.91;;;3.94;69.79
48244;BME280;34053;51.088;6.572;2023-03-04T00:21:12;101989.75;;;4.02;69.21
48244;BME280;34053;51.088;6.572;2023-03-04T00:23:42;101999.31;;;4.03;69.26
48244;BME280;34053;51.088;6.572;2023-03-04T00:26:14;101986.41;;;4.08;69.55
48244;BME280;34053;51.088;6.572;2023-03-04T00:28:44;101986.53;;;4.14;69.40
48244;BME280;34053;51.088;6.572;2023-03-04T00:31:15;101991.78;;;4.16;68.67
48244;BME280;34053;51.088;6.572;2023-03-04T00:33:45;101982.31;;;4.19;68.62
48244;BME280;34053;51.088;6.572;2023-03-04T00:36:16;101980.50;;;4.15;68.79
48244;BME280;34053;51.088;6.572;2023-03-04T00:38:46;101977.16;;;4.21;68.56
48244;BME280;34053;51.088;6.572;2023-03-04T00:41:16;101973.63;;;4.19;68.23
48244;BME280;34053;51.088;6.572;2023-03-04T00:43:47;101976.88;;;4.07;69.31
48244;BME280;34053;51.088;6.572;2023-03-04T00:46:17;101970.94;;;4.14;69.17
48244;BME280;34053;51.088;6.572;2023-03-04T00:48:48;101973.78;;;4.25;68.15
48244;BME280;34053;51.088;6.572;2023-03-04T00:51:18;101962.66;;;4.34;67.70
48244;BME280;34053;51.088;6.572;2023-03-04T00:53:48;101973.88;;;4.31;68.66
48244;BME280;34053;51.088;6.572;2023-03-04T00:56:21;101966.94;;;4.30;68.40
48244;BME280;34053;51.088;6.572;2023-03-04T00:58:51;101960.94;;;4.34;67.59
48244;BME280;34053;51.088;6.572;2023-03-04T01:01:22;101959.91;;;4.26;68.51
48244;BME280;34053;51.088;6.572;2023-03-04T01:03:52;101955.63;;;4.28;68.24
48244;BME280;34053;51.088;6.572;2023-03-04T01:06:23;101963.44;;;4.28;68.59
48244;BME280;34053;51.088;6.572;2023-03-04T01:08:53;101958.31;;;4.33;67.46
48244;BME280;34053;51.088;6.572;2023-03-04T01:11:23;101962.75;;;4.37;67.93
48244;BME280;34053;51.088;6.572;2023-03-04T01:13:54;101960.88;;;4.30;68.23
48244;BME280;34053;51.088;6.572;2023-03-04T01:16:25;101965.25;;;4.32;68.41
48244;BME280;34053;51.088;6.572;2023-03-04T01:18:55;101961.75;;;4.30;68.37
48244;BME280;34053;51.088;6.572;2023-03-04T01:21:25;101960.06;;;4.32;68.12
48244;BME280;34053;51.088;6.572;2023-03-04T01:23:56;101953.84;;;4.24;68.76
48244;BME280;34053;51.088;6.572;2023-03-04T01:26:26;101953.09;;;4.31;68.25
48244;BME280;34053;51.088;6.572;2023-03-04T01:28:57;101950.53;;;4.33;68.61
48244;BME280;34053;51.088;6.572;2023-03-04T01:31:27;101952.34;;;4.37;68.08
48244;BME280;34053;51.088;6.572;2023-03-04T01:33:58;101943.75;;;4.41;67.70
48244;BME280;34053;51.088;6.572;2023-03-04T01:36:28;101937.69;;;4.40;67.93
48244;BME280;34053;51.088;6.572;2023-03-04T01:38:58;101940.19;;;4.36;68.39
48244;BME280;34053;51.088;6.572;2023-03-04T01:41:29;101933.38;;;4.43;68.08
48244;BME280;34053;51.088;6.572;2023-03-04T01:44:00;101932.25;;;4.28;68.33
48244;BME280;34053;51.088;6.572;2023-03-04T01:46:31;101933.34;;;4.41;67.38
48244;BME280;34053;51.088;6.572;2023-03-04T01:49:02;101926.38;;;4.37;68.66
48244;BME280;34053;51.088;6.572;2023-03-04T01:51:33;101925.56;;;4.43;67.38
48244;BME280;34053;51.088;6.572;2023-03-04T01:54:03;101921.34;;;4.46;67.80
48244;BME280;34053;51.088;6.572;2023-03-04T01:56:36;101926.53;;;4.46;67.96
48244;BME280;34053;51.088;6.572;2023-03-04T01:59:17;101920.28;;;4.36;67.84
48244;BME280;34053;51.088;6.572;2023-03-04T02:01:54;101931.00;;;4.56;67.46
48244;BME280;34053;51.088;6.572;2023-03-04T02:04:27;101927.50;;;4.53;67.09
48244;BME280;34053;51.088;6.572;2023-03-04T02:07:00;101920.38;;;4.43;68.04
48244;BME280;34053;51.088;6.572;2023-03-04T02:09:32;101916.94;;;4.44;67.85
48244;BME280;34053;51.088;6.572;2023-03-04T02:12:03;101917.84;;;4.46;68.08
48244;BME280;34053;51.088;6.572;2023-03-04T02:14:33;101915.31;;;4.49;67.59
48244;BME280;34053;51.088;6.572;2023-03-04T02:17:09;101915.25;;;4.46;67.88
48244;BME280;34053;51.088;6.572;2023-03-04T02:19:59;101915.13;;;4.39;68.54
48244;BME280;34053;51.088;6.572;2023-03-04T02:22:35;101911.69;;;4.40;68.31
48244;BME280;34053;51.088;6.572;2023-03-04T02:25:12;101905.41;;;4.29;69.05
48244;BME280;34053;51.088;6.572;2023-03-04T02:27:46;101906.59;;;4.47;67.98
48244;BME280;34053;51.088;6.572;2023-03-04T02:30:20;101904.00;;;4.48;68.02
48244;BME280;34053;51.088;6.572;2023-03-04T02:32:52;101899.75;;;4.52;67.61
48244;BME280;34053;51.088;6.572;2023-03-04T02:35:23;101899.47;;;4.36;68.34
48244;BME280;34053;51.088;6.572;2023-03-04T02:37:53;101893.34;;;4.31;68.54
48244;BME280;34053;51.088;6.572;2023-03-04T02:40:27;101901.91;;;4.25;68.67
48244;BME280;34053;51.088;6.572;2023-03-04T02:42:59;101891.56;;;4.29;68.24
48244;BME280;34053;51.088;6.572;2023-03-04T02:45:37;101889.63;;;4.17;69.03
48244;BME280;34053;51.088;6.572;2023-03-04T02:48:08;101888.75;;;4.18;69.18
48244;BME280;34053;51.088;6.572;2023-03-04T02:50:42;101889.75;;;4.24;68.50
48244;BME280;34053;51.088;6.572;2023-03-04T02:53:14;101883.63;;;4.22;69.07
48244;BME280;34053;51.088;6.572;2023-03-04T02:55:44;101882.72;;;4.19;68.87
48244;BME280;34053;51.088;6.572;2023-03-04T02:58:15;101886.47;;;4.35;68.57
48244;BME280;34053;51.088;6.572;2023-03-04T03:00:45;101878.25;;;4.12;69.41
48244;BME280;34053;51.088;6.572;2023-03-04T03:03:16;101882.75;;;4.20;68.64
48244;BME280;34053;51.088;6.572;2023-03-04T03:05:46;101882.84;;;4.25;68.94
48244;BME280;34053;51.088;6.572;2023-03-04T03:08:17;101883.81;;;4.32;68.53
48244;BME280;34053;51.088;6.572;2023-03-04T03:10:47;101885.22;;;4.14;69.50
48244;BME280;34053;51.088;6.572;2023-03-04T03:13:18;101881.75;;;4.12;69.39
48244;BME280;34053;51.088;6.572;2023-03-04T03:15:48;101885.22;;;4.14;69.64
48244;BME280;34053;51.088;6.572;2023-03-04T03:18:19;101882.53;;;4.09;69.32
48244;BME280;34053;51.088;6.572;2023-03-04T03:20:49;101880.91;;;4.15;69.56
48244;BME280;34053;51.088;6.572;2023-03-04T03:23:20;101870.44;;;4.10;69.93
48244;BME280;34053;51.088;6.572;2023-03-04T03:25:50;101874.19;;;4.26;69.27
48244;BME280;34053;51.088;6.572;2023-03-04T03:28:21;101881.13;;;4.27;69.14
48244;BME280;34053;51.088;6.572;2023-03-04T03:30:51;101875.81;;;4.19;69.35
48244;BME280;34053;51.088;6.572;2023-03-04T03:33:22;101869.84;;;4.25;68.93
48244;BME280;34053;51.088;6.572;2023-03-04T03:35:53;101871.44;;;4.17;69.85
48244;BME280;34053;51.088;6.572;2023-03-04T03:38:23;101862.56;;;4.05;70.29
48244;BME280;34053;51.088;6.572;2023-03-04T03:40:54;101868.84;;;4.17;69.81
48244;BME280;34053;51.088;6.572;2023-03-04T03:43:24;101869.03;;;4.28;69.22
48244;BME280;34053;51.088;6.572;2023-03-04T03:45:54;101864.78;;;4.33;68.93
48244;BME280;34053;51.088;6.572;2023-03-04T03:48:25;101871.47;;;4.20;69.40
48244;BME280;34053;51.088;6.572;2023-03-04T03:50:55;101868.38;;;4.39;69.12
48244;BME280;34053;51.088;6.572;2023-03-04T03:53:26;101865.66;;;4.33;68.85
48244;BME280;34053;51.088;6.572;2023-03-04T03:55:56;101868.19;;;4.30;69.27
48244;BME280;34053;51.088;6.572;2023-03-04T03:58:28;101860.38;;;4.29;69.22
48244;BME280;34053;51.088;6.572;2023-03-04T04:00:58;101860.25;;;4.22;69.86
48244;BME280;34053;51.088;6.572;2023-03-04T04:03:29;101861.09;;;4.20;70.08
48244;BME280;34053;51.088;6.572;2023-03-04T04:06:00;101861.31;;;4.32;69.32
48244;BME280;34053;51.088;6.572;2023-03-04T04:08:30;101860.41;;;4.32;69.40
48244;BME280;34053;51.088;6.572;2023-03-04T04:11:02;101859.66;;;4.37;68.49
48244;BME280;34053;51.088;6.572;2023-03-04T04:13:33;101860.56;;;4.39;69.27
48244;BME280;34053;51.088;6.572;2023-03-04T04:16:04;101865.59;;;4.30;69.28
48244;BME280;34053;51.088;6.572;2023-03-04T04:18:35;101856.22;;;4.38;68.63
48244;BME280;34053;51.088;6.572;2023-03-04T04:21:06;101866.44;;;4.29;69.03
48244;BME280;34053;51.088;6.572;2023-03-04T04:23:39;101864.84;;;4.36;68.84
48244;BME280;34053;51.088;6.572;2023-03-04T04:26:10;101864.84;;;4.37;69.09
48244;BME280;34053;51.088;6.572;2023-03-04T04:28:40;101864.69;;;4.28;69.53
48244;BME280;34053;51.088;6.572;2023-03-04T04:31:11;101865.84;;;4.44;68.86
48244;BME280;34053;51.088;6.572;2023-03-04T04:33:41;101861.47;;;4.41;68.53
48244;BME280;34053;51.088;6.572;2023-03-04T04:36:13;101858.72;;;4.32;69.11
48244;BME280;34053;51.088;6.572;2023-03-04T04:38:45;101861.66;;;4.54;68.40
48244;BME280;34053;51.088;6.572;2023-03-04T04:41:22;101863.19;;;4.43;68.63
48244;BME280;34053;51.088;6.572;2023-03-04T04:43:53;101865.09;;;4.53;68.20
48244;BME280;34053;51.088;6.572;2023-03-04T04:46:25;101864.84;;;4.37;68.66
48244;BME280;34053;51.088;6.572;2023-03-04T04:48:55;101868.47;;;4.46;68.25
48244;BME280;34053;51.088;6.572;2023-03-04T04:51:26;101864.84;;;4.37;69.20
48244;BME280;34053;51.088;6.572;2023-03-04T04:53:58;101863.06;;;4.33;69.21
48244;BME280;34053;51.088;6.572;2023-03-04T04:56:29;101864.94;;;4.44;68.59
48244;BME280;34053;51.088;6.572;2023-03-04T04:59:03;101861.50;;;4.45;68.90
48244;BME280;34053;51.088;6.572;2023-03-04T05:01:34;101861.56;;;4.48;68.85
48244;BME280;34053;51.088;6.572;2023-03-04T05:04:04;101859.06;;;4.54;68.63
48244;BME280;34053;51.088;6.572;2023-03-04T05:06:35;101864.28;;;4.55;68.28
48244;BME280;34053;51.088;6.572;2023-03-04T05:09:05;101869.41;;;4.51;68.72
48244;BME280;34053;51.088;6.572;2023-03-04T05:11:36;101865.75;;;4.38;68.69
48244;BME280;34053;51.088;6.572;2023-03-04T05:14:06;101867.75;;;4.54;68.91
48244;BME280;34053;51.088;6.572;2023-03-04T05:16:37;101857.06;;;4.39;69.59
48244;BME280;34053;51.088;6.572;2023-03-04T05:19:07;101856.97;;;4.33;69.39
48244;BME280;34053;51.088;6.572;2023-03-04T05:21:38;101853.63;;;4.40;68.87
48244;BME280;34053;51.088;6.572;2023-03-04T05:24:08;101855.28;;;4.35;68.87
48244;BME280;34053;51.088;6.572;2023-03-04T05:26:39;101859.81;;;4.48;68.58
48244;BME280;34053;51.088;6.572;2023-03-04T05:29:09;101858.00;;;4.43;68.80
48244;BME280;34053;51.088;6.572;2023-03-04T05:31:40;101863.94;;;4.35;69.09
48244;BME280;34053;51.088;6.572;2023-03-04T05:34:10;101867.63;;;4.47;69.17
48244;BME280;34053;51.088;6.572;2023-03-04T05:36:40;101868.19;;;4.30;69.93
48244;BME280;34053;51.088;6.572;2023-03-04T05:39:11;101868.38;;;4.39;68.95
48244;BME280;34053;51.088;6.572;2023-03-04T05:41:41;101873.56;;;4.39;69.36
48244;BME280;34053;51.088;6.572;2023-03-04T05:44:12;101869.94;;;4.30;70.02
48244;BME280;34053;51.088;6.572;2023-03-04T05:46:42;101872.53;;;4.30;70.18
48244;BME280;34053;51.088;6.572;2023-03-04T05:49:13;101877.19;;;4.51;68.76
48244;BME280;34053;51.088;6.572;2023-03-04T05:51:43;101875.66;;;4.64;68.05
48244;BME280;34053;51.088;6.572;2023-03-04T05:54:13;101876.41;;;4.53;68.84
48244;BME280;34053;51.088;6.572;2023-03-04T05:56:44;101883.44;;;4.61;68.81
48244;BME280;34053;51.088;6.572;2023-03-04T05:59:14;101878.78;;;4.43;69.72
48244;BME280;34053;51.088;6.572;2023-03-04T06:01:49;101885.06;;;4.55;68.34
48244;BME280;34053;51.088;6.572;2023-03-04T06:04:20;101879.06;;;4.58;69.11
48244;BME280;34053;51.088;6.572;2023-03-04T06:06:50;101881.53;;;4.52;69.05
48244;BME280;34053;51.088;6.572;2023-03-04T06:09:20;101881.59;;;4.53;69.35
48244;BME280;34053;51.088;6.572;2023-03-04T06:11:51;101890.34;;;4.59;68.79
48244;BME280;34053;51.088;6.572;2023-03-04T06:14:21;101887.66;;;4.54;69.49
48244;BME280;34053;51.088;6.572;2023-03-04T06:16:52;101884.97;;;4.49;69.89
48244;BME280;34053;51.088;6.572;2023-03-04T06:19:22;101889.50;;;4.61;68.83
48244;BME280;34053;51.088;6.572;2023-03-04T06:21:53;101893.78;;;4.57;68.59
48244;BME280;34053;51.088;6.572;2023-03-04T06:24:26;101896.03;;;4.37;69.69
48244;BME280;34053;51.088;6.572;2023-03-04T06:27:00;101890.94;;;4.44;69.40
48244;BME280;34053;51.088;6.572;2023-03-04T06:29:31;101893.66;;;4.50;69.13
48244;BME280;34053;51.088;6.572;2023-03-04T06:32:01;101890.16;;;4.48;69.19
48244;BME280;34053;51.088;6.572;2023-03-04T06:34:32;101886.63;;;4.44;70.11
48244;BME280;34053;51.088;6.572;2023-03-04T06:37:03;101903.25;;;4.54;69.50
48244;BME280;34053;51.088;6.572;2023-03-04T06:39:36;101896.38;;;4.59;69.41
48244;BME280;34053;51.088;6.572;2023-03-04T06:42:07;101895.38;;;4.51;69.61
48244;BME280;34053;51.088;6.572;2023-03-04T06:44:37;101903.34;;;4.60;69.13
48244;BME280;34053;51.088;6.572;2023-03-04T06:47:08;101910.28;;;4.60;69.27
48244;BME280;34053;51.088;6.572;2023-03-04T06:49:38;101912.19;;;4.70;69.00
48244;BME280;34053;51.088;6.572;2023-03-04T06:52:09;101912.16;;;4.68;68.90
48244;BME280;34053;51.088;6.572;2023-03-04T06:54:42;101915.56;;;4.64;68.44
48244;BME280;34053;51.088;6.572;2023-03-04T06:57:12;101911.06;;;4.54;69.66
48244;BME280;34053;51.088;6.572;2023-03-04T06:59:42;101916.94;;;4.44;69.76
48244;BME280;34053;51.088;6.572;2023-03-04T07:02:13;101918.94;;;4.60;68.94
48244;BME280;34053;51.088;6.572;2023-03-04T07:04:43;101914.41;;;4.48;69.55
48244;BME280;34053;51.088;6.572;2023-03-04T07:07:14;101910.13;;;4.52;69.49
48244;BME280;34053;51.088;6.572;2023-03-04T07:09:44;101919.25;;;4.77;69.01
48244;BME280;34053;51.088;6.572;2023-03-04T07:12:15;101918.88;;;4.55;69.72
48244;BME280;34053;51.088;6.572;2023-03-04T07:14:45;101912.97;;;4.66;69.05
48244;BME280;34053;51.088;6.572;2023-03-04T07:17:15;101922.34;;;4.56;68.62
48244;BME280;34053;51.088;6.572;2023-03-04T07:19:46;101921.25;;;4.43;69.64
48244;BME280;34053;51.088;6.572;2023-03-04T07:22:16;101925.69;;;4.49;69.38
48244;BME280;34053;51.088;6.572;2023-03-04T07:24:47;101932.88;;;4.64;68.94
48244;BME280;34053;51.088;6.572;2023-03-04T07:27:17;101920.44;;;4.46;70.01
48244;BME280;34053;51.088;6.572;2023-03-04T07:29:48;101941.50;;;4.61;69.13
48244;BME280;34053;51.088;6.572;2023-03-04T07:32:18;101937.88;;;4.53;69.30
48244;BME280;34053;51.088;6.572;2023-03-04T07:34:48;101930.22;;;4.61;69.47
48244;BME280;34053;51.088;6.572;2023-03-04T07:37:20;101931.16;;;4.64;68.93
48244;BME280;34053;51.088;6.572;2023-03-04T07:39:50;101934.53;;;4.60;69.44
48244;BME280;34053;51.088;6.572;2023-03-04T07:42:21;101937.28;;;4.68;69.29
48244;BME280;34053;51.088;6.572;2023-03-04T07:44:51;101941.78;;;4.78;69.30
48244;BME280;34053;51.088;6.572;2023-03-04T07:47:22;101933.94;;;4.75;69.64
48244;BME280;34053;51.088;6.572;2023-03-04T07:49:52;101938.03;;;4.61;69.99
48244;BME280;34053;51.088;6.572;2023-03-04T07:52:23;101930.28;;;4.64;69.85
48244;BME280;34053;51.088;6.572;2023-03-04T07:54:54;101940.72;;;4.65;69.94
48244;BME280;34053;51.088;6.572;2023-03-04T07:57:24;101942.34;;;4.60;70.06
48244;BME280;34053;51.088;6.572;2023-03-04T07:59:55;101943.50;;;4.78;69.90
48244;BME280;34053;51.088;6.572;2023-03-04T08:02:25;101941.72;;;4.73;69.53
48244;BME280;34053;51.088;6.572;2023-03-04T08:04:56;101940.72;;;4.65;70.16
48244;BME280;34053;51.088;6.572;2023-03-04T08:07:26;101947.00;;;4.80;70.07
48244;BME280;34053;51.088;6.572;2023-03-04T08:09:56;101952.13;;;4.73;71.27
48244;BME280;34053;51.088;6.572;2023-03-04T08:12:27;101944.56;;;4.87;70.17
48244;BME280;34053;51.088;6.572;2023-03-04T08:14:59;101947.03;;;4.81;70.25
48244;BME280;34053;51.088;6.572;2023-03-04T08:17:29;101951.56;;;4.93;70.01
48244;BME280;34053;51.088;6.572;2023-03-04T08:20:00;101952.47;;;4.97;69.81
48244;BME280;34053;51.088;6.572;2023-03-04T08:22:30;101947.25;;;4.94;69.86
48244;BME280;34053;51.088;6.572;2023-03-04T08:25:00;101946.66;;;5.12;69.63
48244;BME280;34053;51.088;6.572;2023-03-04T08:27:31;101956.81;;;4.96;70.07
48244;BME280;34053;51.088;6.572;2023-03-04T08:30:03;101948.09;;;4.94;70.19
48244;BME280;34053;51.088;6.572;2023-03-04T08:32:34;101947.41;;;5.03;69.89
48244;BME280;34053;51.088;6.572;2023-03-04T08:35:05;101954.31;;;5.02;69.68
48244;BME280;34053;51.088;6.572;2023-03-04T08:37:35;101954.28;;;4.99;70.10
48244;BME280;34053;51.088;6.572;2023-03-04T08:40:06;101951.69;;;4.99;69.86
48244;BME280;34053;51.088;6.572;2023-03-04T08:42:37;101950.78;;;5.00;70.09
48244;BME280;34053;51.088;6.572;2023-03-04T08:45:08;101952.63;;;5.06;70.44
48244;BME280;34053;51.088;6.572;2023-03-04T08:47:39;101945.66;;;5.03;70.28
48244;BME280;34053;51.088;6.572;2023-03-04T08:50:10;101944.81;;;5.04;71.15
48244;BME280;34053;51.088;6.572;2023-03-04T08:52:40;101947.41;;;5.04;71.67
48244;BME280;34053;51.088;6.572;2023-03-04T08:55:11;101947.63;;;5.20;71.30
48244;BME280;34053;51.088;6.572;2023-03-04T08:57:42;101950.22;;;5.18;71.60
48244;BME280;34053;51.088;6.572;2023-03-04T09:00:12;101952.00;;;5.21;71.85
48244;BME280;34053;51.088;6.572;2023-03-04T09:02:43;101947.84;;;5.32;71.67
48244;BME280;34053;51.088;6.572;2023-03-04T09:05:14;101951.22;;;5.27;72.10
48244;BME280;34053;51.088;6.572;2023-03-04T09:07:44;101952.19;;;5.35;71.75
48244;BME280;34053;51.088;6.572;2023-03-04T09:10:15;101958.25;;;5.32;72.79
48244;BME280;34053;51.088;6.572;2023-03-04T09:12:46;101952.22;;;5.36;72.63
48244;BME280;34053;51.088;6.572;2023-03-04T09:15:16;101954.94;;;5.46;71.88
48244;BME280;34053;51.088;6.572;2023-03-04T09:17:47;101949.03;;;5.58;71.26
48244;BME280;34053;51.088;6.572;2023-03-04T09:20:17;101949.97;;;5.63;71.53
48244;BME280;34053;51.088;6.572;2023-03-04T09:22:48;101949.81;;;5.52;71.76
48244;BME280;34053;51.088;6.572;2023-03-04T09:25:19;101953.97;;;5.38;71.69
48244;BME280;34053;51.088;6.572;2023-03-04T09:27:49;101946.28;;;5.47;71.69
48244;BME280;34053;51.088;6.572;2023-03-04T09:30:20;101948.19;;;5.60;71.39
48244;BME280;34053;51.088;6.572;2023-03-04T09:32:50;101942.00;;;5.50;71.31
48244;BME280;34053;51.088;6.572;2023-03-04T09:35:21;101947.47;;;5.71;70.73
48244;BME280;34053;51.088;6.572;2023-03-04T09:37:52;101947.28;;;5.55;71.01
48244;BME280;34053;51.088;6.572;2023-03-04T09:40:27;101942.16;;;5.63;71.01
48244;BME280;34053;51.088;6.572;2023-03-04T09:43:01;101955.34;;;5.77;71.33
48244;BME280;34053;51.088;6.572;2023-03-04T09:45:47;101944.03;;;5.75;71.17
48244;BME280;34053;51.088;6.572;2023-03-04T09:48:25;101943.22;;;5.79;70.51
48244;BME280;34053;51.088;6.572;2023-03-04T09:54:10;101939.78;;;5.81;70.77
48244;BME280;34053;51.088;6.572;2023-03-04T09:56:44;101943.34;;;5.88;70.66
48244;BME280;34053;51.088;6.572;2023-03-04T10:02:06;101936.34;;;5.84;70.67
48244;BME280;34053;51.088;6.572;2023-03-04T10:04:48;101940.75;;;5.91;70.79
48244;BME280;34053;51.088;6.572;2023-03-04T10:07:26;101934.84;;;6.02;69.96
48244;BME280;34053;51.088;6.572;2023-03-04T10:12:37;101934.03;;;6.07;70.32
48244;BME280;34053;51.088;6.572;2023-03-04T10:15:44;101928.88;;;6.10;70.27
48244;BME280;34053;51.088;6.572;2023-03-04T10:18:23;101932.38;;;6.14;70.89
48244;BME280;34053;51.088;6.572;2023-03-04T10:21:12;101930.47;;;6.01;71.93
48244;BME280;34053;51.088;6.572;2023-03-04T10:23:45;101930.22;;;5.79;71.91
48244;BME280;34053;51.088;6.572;2023-03-04T10:26:21;101919.25;;;6.06;71.58
48244;BME280;34053;51.088;6.572;2023-03-04T10:28:52;101922.81;;;6.13;71.13
48244;BME280;34053;51.088;6.572;2023-03-04T10:31:34;101921.16;;;6.21;70.54
48244;BME280;34053;51.088;6.572;2023-03-04T10:34:05;101916.81;;;6.19;70.11
48244;BME280;34053;51.088;6.572;2023-03-04T10:36:47;101922.97;;;6.27;69.91
48244;BME280;34053;51.088;6.572;2023-03-04T10:39:27;101909.88;;;6.22;70.10
48244;BME280;34053;51.088;6.572;2023-03-04T10:45:18;101905.75;;;6.46;69.81
48244;BME280;34053;51.088;6.572;2023-03-04T10:47:56;101903.19;;;6.51;69.36
48244;BME280;34053;51.088;6.572;2023-03-04T10:50:28;101894.56;;;6.56;69.92
48244;BME280;34053;51.088;6.572;2023-03-04T10:52:58;101904.94;;;6.53;68.26
48244;BME280;34053;51.088;6.572;2023-03-04T10:55:41;101900.63;;;6.55;68.30
48244;BME280;34053;51.088;6.572;2023-03-04T10:58:14;101898.91;;;6.59;68.08
48244;BME280;34053;51.088;6.572;2023-03-04T11:00:59;101902.44;;;6.66;68.22
48244;BME280;34053;51.088;6.572;2023-03-04T11:03:35;101898.09;;;6.66;68.24
48244;BME280;34053;51.088;6.572;2023-03-04T11:08:57;101896.28;;;6.57;66.99
48244;BME280;34053;51.088;6.572;2023-03-04T11:11:41;101888.53;;;6.65;67.58
48244;BME280;34053;51.088;6.572;2023-03-04T11:14:39;101890.31;;;6.74;66.97
48244;BME280;34053;51.088;6.572;2023-03-04T11:20:04;101889.44;;;6.69;66.92
48244;BME280;34053;51.088;6.572;2023-03-04T11:22:40;101895.53;;;6.71;67.61
48244;BME280;34053;51.088;6.572;2023-03-04T11:25:35;101886.72;;;6.58;67.28
48244;BME280;34053;51.088;6.572;2023-03-04T11:28:20;101885.06;;;6.68;67.84
48244;BME280;34053;51.088;6.572;2023-03-04T11:31:00;101891.09;;;6.59;68.13
48244;BME280;34053;51.088;6.572;2023-03-04T11:36:33;101880.75;;;6.71;68.04
48244;BME280;34053;51.088;6.572;2023-03-04T11:39:08;101872.03;;;6.68;68.10
48244;BME280;34053;51.088;6.572;2023-03-04T11:41:49;101874.75;;;6.80;67.81
48244;BME280;34053;51.088;6.572;2023-03-04T11:44:21;101871.31;;;6.90;67.77
48244;BME280;34053;51.088;6.572;2023-03-04T11:47:20;101862.66;;;6.95;67.81
48244;BME280;34053;51.088;6.572;2023-03-04T11:56:10;101851.50;;;7.23;66.72
48244;BME280;34053;51.088;6.572;2023-03-04T12:12:41;101833.22;;;7.22;66.35
48244;BME280;34053;51.088;6.572;2023-03-04T12:15:20;101838.41;;;7.14;66.21
48244;BME280;34053;51.088;6.572;2023-03-04T12:18:04;101831.44;;;7.13;66.66
48244;BME280;34053;51.088;6.572;2023-03-04T12:20:56;101827.09;;;7.14;66.63
48244;BME280;34053;51.088;6.572;2023-03-04T12:26:54;101813.19;;;7.18;67.05
48244;BME280;34053;51.088;6.572;2023-03-04T12:29:40;101819.22;;;7.03;67.74
48244;BME280;34053;51.088;6.572;2023-03-04T12:52:43;101786.31;;;7.45;66.67
48244;BME280;34053;51.088;6.572;2023-03-04T12:55:23;101784.59;;;7.60;66.38
48244;BME280;34053;51.088;6.572;2023-03-04T12:57:58;101782.84;;;7.46;66.99
48244;BME280;34053;51.088;6.572;2023-03-04T13:03:35;101770.66;;;7.45;66.88
48244;BME280;34053;51.088;6.572;2023-03-04T13:06:14;101781.97;;;7.50;66.76
48244;BME280;34053;51.088;6.572;2023-03-04T13:08:58;101774.06;;;7.32;67.57
48244;BME280;34053;51.088;6.572;2023-03-04T13:11:37;101769.75;;;7.45;67.28
48244;BME280;34053;51.088;6.572;2023-03-04T13:16:51;101765.44;;;7.56;67.12
48244;BME280;34053;51.088;6.572;2023-03-04T13:20:42;101754.13;;;7.54;67.16
48244;BME280;34053;51.088;6.572;2023-03-04T13:22:45;101757.63;;;7.59;67.18
48244;BME280;34053;51.088;6.572;2023-03-04T13:35:48;101748.91;;;7.63;67.07
48244;BME280;34053;51.088;6.572;2023-03-04T13:51:43;101732.34;;;7.50;66.51
48244;BME280;34053;51.088;6.572;2023-03-04T13:57:09;101730.66;;;7.72;66.70
48244;BME280;34053;51.088;6.572;2023-03-04T13:59:46;101726.31;;;7.84;66.66
48244;BME280;34053;51.088;6.572;2023-03-04T14:02:20;101719.31;;;7.86;66.42
48244;BME280;34053;51.088;6.572;2023-03-04T14:04:59;101715.84;;;7.85;66.67
48244;BME280;34053;51.088;6.572;2023-03-04T14:07:35;101714.97;;;7.90;66.30
48244;BME280;34053;51.088;6.572;2023-03-04T14:12:47;101707.13;;;7.77;65.99
48244;BME280;34053;51.088;6.572;2023-03-04T14:17:57;101705.41;;;7.84;66.37
48244;BME280;34053;51.088;6.572;2023-03-04T14:20:29;101701.94;;;7.85;66.25
48244;BME280;34053;51.088;6.572;2023-03-04T14:23:03;101702.78;;;7.68;65.89
48244;BME280;34053;51.088;6.572;2023-03-04T14:25:34;101705.41;;;7.85;66.15
48244;BME280;34053;51.088;6.572;2023-03-04T14:28:11;101705.41;;;7.85;65.82
48244;BME280;34053;51.088;6.572;2023-03-04T14:30:54;101702.75;;;7.73;66.62
48244;BME280;34053;51.088;6.572;2023-03-04T14:33:27;101694.94;;;7.73;66.33
48244;BME280;34053;51.088;6.572;2023-03-04T14:35:59;101695.81;;;7.69;66.49
48244;BME280;34053;51.088;6.572;2023-03-04T14:38:39;101692.34;;;7.79;66.34
48244;BME280;34053;51.088;6.572;2023-03-04T14:41:23;101688.84;;;7.52;66.93
48244;BME280;34053;51.088;6.572;2023-03-04T14:46:47;101680.16;;;7.63;66.65
48244;BME280;34053;51.088;6.572;2023-03-04T14:49:18;101679.25;;;7.62;66.93
48244;BME280;34053;51.088;6.572;2023-03-04T14:51:53;101678.41;;;7.71;66.92
48244;BME280;34053;51.088;6.572;2023-03-04T14:54:37;101675.78;;;7.74;66.92
48244;BME280;34053;51.088;6.572;2023-03-04T14:57:36;101673.19;;;7.60;67.33
48244;BME280;34053;51.088;6.572;2023-03-04T15:02:56;101668.81;;;7.39;68.51
48244;BME280;34053;51.088;6.572;2023-03-04T15:05:30;101668.81;;;7.57;68.14
48244;BME280;34053;51.088;6.572;2023-03-04T15:08:26;101674.06;;;7.70;68.03
48244;BME280;34053;51.088;6.572;2023-03-04T15:10:59;101672.28;;;7.41;70.23
48244;BME280;34053;51.088;6.572;2023-03-04T15:13:45;101663.56;;;7.53;69.71
48244;BME280;34053;51.088;6.572;2023-03-04T15:16:19;101663.59;;;7.45;70.97
48244;BME280;34053;51.088;6.572;2023-03-04T15:19:04;101664.44;;;7.35;71.50